»·PEaware :: N1992Y L52-L88

N1992Y :: L52-L88

FLIGHT INFORMATION

Flight Status: Arrived
Operator: Privately registered:
United States
More flights under this callsign
Pilot: Preston A. (20570)
Aircraft: CESSNA 172 SKYHAWK
(C172)
More flights by this aircraft type
Origin: L52 Oceano Co
United States
Destination: L88 New Cuyama
United States
More flights between these airports :: More routes between these airports
Route:
File this flight plan on PilotEdge
Remarks: CAT I
Altitude:
(Current/Filed)
5,500ft
Speed:
(Current/Filed)
115kts
Departed: 10-Oct-18 08:19 AM
Arrived: 10-Oct-18 08:45 AM
Distance/Time
Traveled:
47nm/0:25
Distance/Time
To Go:
Arrived

Flight Plot

Page will automatically refresh every two minutes.


Map Options




Map Legend


Flown Route
Filed Route
Departure Airport
Arrival Airport
Navaid (VOR, NDB)
Fix

Horizontal Profiles

Position Reports

Time Latitude Longitude Heading Altitude Ground
Speed
10-Oct-18 07:58 35.103406 -120.624442 32 18ft 0kts
10-Oct-18 07:59 35.103406 -120.624442 32 18ft 0kts
10-Oct-18 08:00 35.103406 -120.624442 32 18ft 0kts
10-Oct-18 08:01 35.103406 -120.624442 32 18ft 0kts
10-Oct-18 08:02 35.103406 -120.624442 32 18ft 0kts
10-Oct-18 08:03 35.103406 -120.624442 32 18ft 0kts
10-Oct-18 08:04 35.103406 -120.624442 32 18ft 0kts
10-Oct-18 08:05 35.103406 -120.624442 32 18ft 0kts
10-Oct-18 08:06 35.103406 -120.624442 32 18ft 0kts
10-Oct-18 08:07 35.103406 -120.624442 32 18ft 0kts
10-Oct-18 08:08 35.103406 -120.624442 32 18ft 0kts
10-Oct-18 08:09 35.103406 -120.624442 32 18ft 0kts
10-Oct-18 08:10 35.103406 -120.624442 32 18ft 0kts
10-Oct-18 08:11 35.103406 -120.624442 32 18ft 0kts
10-Oct-18 08:12 35.103678 -120.624634 307 18ft 8kts
10-Oct-18 08:13 35.103689 -120.625133 164 18ft 0kts
10-Oct-18 08:14 35.103689 -120.625133 164 18ft 0kts
10-Oct-18 08:15 35.103689 -120.625133 165 18ft 0kts
10-Oct-18 08:16 35.103689 -120.625133 165 18ft 0kts
10-Oct-18 08:17 35.103689 -120.625133 165 18ft 0kts
10-Oct-18 08:18 35.103689 -120.625133 165 18ft 0kts
10-Oct-18 08:19 35.103689 -120.625133 165 18ft 0kts
10-Oct-18 08:20 35.103009 -120.625036 121 18ft 10kts
10-Oct-18 08:21 35.091734 -120.604343 120 756ft 72kts
10-Oct-18 08:22 35.086683 -120.584162 91 1380ft 83kts
10-Oct-18 08:23 35.089650 -120.557280 75 1425ft 78kts
10-Oct-18 08:24 35.095680 -120.530610 75 1425ft 84kts
10-Oct-18 08:25 35.102174 -120.501041 73 1604ft 104kts
10-Oct-18 08:26 35.104460 -120.473495 88 1792ft 124kts
10-Oct-18 08:27 35.102644 -120.429884 98 2525ft 130kts
10-Oct-18 08:28 35.101314 -120.383668 89 3044ft 138kts
10-Oct-18 08:29 35.099935 -120.336685 86 3450ft 144kts
10-Oct-18 08:30 35.100658 -120.288255 92 3397ft 140kts
10-Oct-18 08:31 35.098239 -120.240643 94 3420ft 140kts
10-Oct-18 08:32 35.098918 -120.192537 86 3434ft 142kts
10-Oct-18 08:33 35.099155 -120.144125 92 3424ft 143kts
10-Oct-18 08:34 35.096375 -120.098084 91 3479ft 129kts
10-Oct-18 08:35 35.093524 -120.054928 118 3417ft 125kts
10-Oct-18 08:36 35.077800 -120.016955 122 3406ft 120kts
10-Oct-18 08:37 35.063408 -119.979734 118 3446ft 122kts
10-Oct-18 08:38 35.048370 -119.941123 120 3414ft 127kts
10-Oct-18 08:39 35.032816 -119.902418 122 3414ft 127kts
10-Oct-18 08:40 35.019111 -119.869407 120 3431ft 126kts
10-Oct-18 08:41 35.005052 -119.832121 119 3433ft 127kts
10-Oct-18 08:42 34.988721 -119.794553 126 2936ft 117kts
10-Oct-18 08:43 34.974160 -119.763976 124 2406ft 98kts
10-Oct-18 08:44 34.961250 -119.734381 121 2442ft 103kts
10-Oct-18 08:45 34.947944 -119.705274 128 2494ft 92kts
10-Oct-18 08:46 34.938018 -119.680982 113 2207ft 52kts
10-Oct-18 08:47 34.939185 -119.683721 294 2207ft 38kts
10-Oct-18 08:48 34.943014 -119.690811 322 2207ft 9kts
10-Oct-18 08:49 34.943047 -119.690999 183 2207ft 0kts
10-Oct-18 08:50 34.943047 -119.690999 183 2207ft 0kts

Navigation Log

Ident Type
Flight plan parsing failed, navigation log unavailable